Royal Prince — WCX8037 — position and weather

sailwx.info

Track history (hours):
 
Tides and Currents Weather Stations Pressure Air Temp Water Temp Dewpoint Dewpoint Depression Visibility Wind Speed Wind Dir Waves Ship Positions

Royal Prince

Owner: Golden Gate Scenic Steamship Corp, SAN FRANCISCO, CA. More information available from US FCC via Universal Licensing System and Coast Guard Vessel Documentation Center.

Last reported at 2014-Dec-22 20:33 UTC. Time now 2014-Dec-22 20:39 UTC.
Position N 37°49' W 122°28'.

Length 28 m; draft 2.3 m.

Type: Passenger vessel. MMSI: 366975760.

Date/timePositionNaut miles runAvg speedWind from/ knotsBaromVisibWave heightAir tempDewpointWater temp
2014-Dec-22 20:33N 37°49' W 122°28'3 2.6
2014-Dec-22 19:33N 37°50' W 122°25'1 1.0
2014-Dec-22 18:33N 37°49' W 122°25'0 0.0
2014-Dec-22 03:33N 37°49' W 122°25'3 2.7
2014-Dec-22 02:33N 37°49' W 122°22'3 2.7
2014-Dec-22 01:33N 37°49' W 122°25'1 1.2
2014-Dec-22 00:33N 37°50' W 122°25'1 1.2
2014-Dec-21 23:33N 37°49' W 122°25'0 0.0
2014-Dec-21 22:33N 37°49' W 122°25'3 2.6
2014-Dec-21 21:33N 37°49' W 122°28'3 2.6
2014-Dec-21 20:33N 37°49' W 122°25'1 1.4
2014-Dec-21 19:33N 37°49' W 122°27'1 0.9
2014-Dec-21 18:33N 37°49' W 122°27'2 0.1
2014-Dec-21 03:33N 37°49' W 122°25'3 2.8
2014-Dec-21 02:33N 37°49' W 122°21'3 2.9
2014-Dec-21 01:33N 37°49' W 122°25'1 0.8
2014-Dec-21 00:33N 37°49' W 122°24'1 0.8
2014-Dec-20 23:33N 37°49' W 122°25'0 0.0
2014-Dec-20 22:33N 37°49' W 122°25'3 3.0
2014-Dec-20 21:33N 37°49' W 122°29'3 3.0
2014-Dec-20 20:33N 37°49' W 122°25'2 2.3
2014-Dec-20 19:33N 37°49' W 122°28'1 0.5
2014-Dec-20 18:33N 37°49' W 122°28'3 2.6
2014-Dec-20 17:33N 37°49' W 122°25'0 0.0
2014-Dec-20 06:33N 37°49' W 122°25'2 2.3
2014-Dec-20 05:33N 37°47' W 122°23'6 6.2
2014-Dec-20 04:34N 37°52' W 122°26'4 3.9
2014-Dec-20 03:33N 37°49' W 122°25'0 0.0
2014-Dec-20 02:33N 37°49' W 122°25'0 0.0
2014-Dec-20 01:33N 37°49' W 122°25'1 0.7
2014-Dec-20 00:34N 37°49' W 122°24'1 0.7
2014-Dec-19 23:33N 37°49' W 122°25'0 0.0
2014-Dec-19 22:33N 37°49' W 122°25'3 2.9
2014-Dec-19 21:33N 37°49' W 122°28'3 2.9
2014-Dec-19 20:33N 37°49' W 122°25'3 2.8
2014-Dec-19 19:34N 37°49' W 122°28'2 1.6
2014-Dec-19 18:33N 37°50' W 122°26'2 1.6
2014-Dec-19 17:34N 37°49' W 122°25'0 0.0
2014-Dec-19 03:34N 37°49' W 122°25'3 2.7
2014-Dec-19 02:33N 37°49' W 122°22'3 2.8
2014-Dec-19 01:34N 37°49' W 122°25'1 0.6
2014-Dec-19 00:34N 37°49' W 122°24'1 0.6
2014-Dec-18 23:33N 37°49' W 122°25'0 0.0
2014-Dec-18 22:33N 37°49' W 122°25'1 1.0
2014-Dec-18 21:34N 37°49' W 122°26'1 1.0
2014-Dec-18 20:33N 37°49' W 122°25'3 2.8
2014-Dec-18 19:34N 37°49' W 122°28'1 1.1
2014-Dec-18 18:34N 37°49' W 122°27'2 0.1
2014-Dec-18 00:07N 37°49' W 122°25'2 4.0
2014-Dec-17 23:33N 37°49' W 122°28'2 2.1
2014-Dec-17 22:33N 37°49' W 122°25'1 0.8
2014-Dec-17 21:33N 37°49' W 122°25'3 2.7
2014-Dec-17 20:33N 37°49' W 122°28'3 0.1
2014-Dec-17 00:03N 37°49' W 122°25'2 3.2
2014-Dec-16 23:33N 37°50' W 122°26'2 1.7
2014-Dec-16 22:33N 37°49' W 122°24'0 0.4
2014-Dec-16 21:33N 37°49' W 122°25'2 2.1
2014-Dec-16 20:33N 37°49' W 122°27'2 0.1
2014-Dec-16 03:32N 37°49' W 122°25'3 2.7
2014-Dec-16 02:33N 37°49' W 122°22'3 2.5
2014-Dec-16 01:30N 37°49' W 122°25'0 0.0
2014-Dec-16 00:31N 37°49' W 122°25'0 0.0
2014-Dec-15 23:33N 37°49' W 122°25'0 0.2
2014-Dec-15 22:33N 37°49' W 122°25'3 2.9
2014-Dec-15 21:33N 37°49' W 122°29'3 3.0
2014-Dec-15 20:33N 37°49' W 122°25'2 2.4
2014-Dec-15 19:33N 37°49' W 122°28'2 2.4
2014-Dec-15 18:33N 37°49' W 122°25'0 0.0
2014-Dec-15 05:16N 37°49' W 122°25'1 1.1
2014-Dec-15 04:33N 37°48' W 122°24'4 4.3
2014-Dec-15 03:33N 37°52' W 122°26'4 3.5
2014-Dec-15 02:33N 37°49' W 122°27'2 1.9
2014-Dec-15 01:33N 37°49' W 122°25'0 0.0
2014-Dec-15 00:33N 37°49' W 122°25'3 3.1
2014-Dec-14 23:33N 37°49' W 122°29'3 0.2
2014-Dec-14 06:07N 37°49' W 122°25'0 0.0
2014-Dec-14 05:33N 37°49' W 122°25'3 2.9
2014-Dec-14 04:33N 37°48' W 122°21'6 5.9
2014-Dec-14 03:33N 37°52' W 122°27'4 4.0
2014-Dec-14 02:33N 37°49' W 122°25'0 0.0
2014-Dec-14 01:33N 37°49' W 122°25'1 1.1
2014-Dec-14 00:33N 37°50' W 122°25'1 1.1
2014-Dec-13 23:33N 37°49' W 122°25'0 0.0
2014-Dec-13 22:33N 37°49' W 122°25'3 2.7
2014-Dec-13 21:33N 37°49' W 122°28'3 2.7
2014-Dec-13 20:33N 37°49' W 122°25'2 2.3
2014-Dec-13 19:33N 37°49' W 122°28'1 0.5
2014-Dec-13 18:33N 37°49' W 122°27'2 2.1
2014-Dec-13 17:33N 37°49' W 122°25'0 0.0
2014-Dec-13 03:33N 37°49' W 122°25'3 2.6
2014-Dec-13 02:34N 37°50' W 122°22'3 2.6
2014-Dec-13 01:34N 37°49' W 122°25'0 0.0
2014-Dec-13 00:33N 37°49' W 122°25'0 0.0
2014-Dec-12 23:33N 37°49' W 122°25'0 0.1
2014-Dec-12 22:33N 37°49' W 122°25'3 2.9
2014-Dec-12 21:34N 37°49' W 122°29'3 3.0
2014-Dec-12 20:34N 37°49' W 122°25'  
Track history (hours):
 
Tides and Currents Weather Stations Pressure Air Temp Water Temp Dewpoint Dewpoint Depression Visibility Wind Speed Wind Dir Waves Ship Positions

Royal Prince

Owner: Golden Gate Scenic Steamship Corp, SAN FRANCISCO, CA. More information available from US FCC via Universal Licensing System and Coast Guard Vessel Documentation Center.

Last reported at 2014-Dec-22 20:33 UTC. Time now 2014-Dec-22 20:39 UTC.
Position N 37°49' W 122°28'.

Length 28 m; draft 2.3 m.

Type: Passenger vessel. MMSI: 366975760.

Date/timePositionNaut miles runAvg speedWind from/ knotsBaromVisibWave heightAir tempDewpointWater temp
2014-Dec-22 20:33N 37°49' W 122°28'3 2.6
2014-Dec-22 19:33N 37°50' W 122°25'1 1.0
2014-Dec-22 18:33N 37°49' W 122°25'0 0.0
2014-Dec-22 03:33N 37°49' W 122°25'3 2.7
2014-Dec-22 02:33N 37°49' W 122°22'3 2.7
2014-Dec-22 01:33N 37°49' W 122°25'1 1.2
2014-Dec-22 00:33N 37°50' W 122°25'1 1.2
2014-Dec-21 23:33N 37°49' W 122°25'0 0.0
2014-Dec-21 22:33N 37°49' W 122°25'3 2.6
2014-Dec-21 21:33N 37°49' W 122°28'3 2.6
2014-Dec-21 20:33N 37°49' W 122°25'1 1.4
2014-Dec-21 19:33N 37°49' W 122°27'1 0.9
2014-Dec-21 18:33N 37°49' W 122°27'2 0.1
2014-Dec-21 03:33N 37°49' W 122°25'3 2.8
2014-Dec-21 02:33N 37°49' W 122°21'3 2.9
2014-Dec-21 01:33N 37°49' W 122°25'1 0.8
2014-Dec-21 00:33N 37°49' W 122°24'1 0.8
2014-Dec-20 23:33N 37°49' W 122°25'0 0.0
2014-Dec-20 22:33N 37°49' W 122°25'3 3.0
2014-Dec-20 21:33N 37°49' W 122°29'3 3.0
2014-Dec-20 20:33N 37°49' W 122°25'2 2.3
2014-Dec-20 19:33N 37°49' W 122°28'1 0.5
2014-Dec-20 18:33N 37°49' W 122°28'3 2.6
2014-Dec-20 17:33N 37°49' W 122°25'0 0.0
2014-Dec-20 06:33N 37°49' W 122°25'2 2.3
2014-Dec-20 05:33N 37°47' W 122°23'6 6.2
2014-Dec-20 04:34N 37°52' W 122°26'4 3.9
2014-Dec-20 03:33N 37°49' W 122°25'0 0.0
2014-Dec-20 02:33N 37°49' W 122°25'0 0.0
2014-Dec-20 01:33N 37°49' W 122°25'1 0.7
2014-Dec-20 00:34N 37°49' W 122°24'1 0.7
2014-Dec-19 23:33N 37°49' W 122°25'0 0.0
2014-Dec-19 22:33N 37°49' W 122°25'3 2.9
2014-Dec-19 21:33N 37°49' W 122°28'3 2.9
2014-Dec-19 20:33N 37°49' W 122°25'3 2.8
2014-Dec-19 19:34N 37°49' W 122°28'2 1.6
2014-Dec-19 18:33N 37°50' W 122°26'2 1.6
2014-Dec-19 17:34N 37°49' W 122°25'0 0.0
2014-Dec-19 03:34N 37°49' W 122°25'3 2.7
2014-Dec-19 02:33N 37°49' W 122°22'3 2.8
2014-Dec-19 01:34N 37°49' W 122°25'1 0.6
2014-Dec-19 00:34N 37°49' W 122°24'1 0.6
2014-Dec-18 23:33N 37°49' W 122°25'0 0.0
2014-Dec-18 22:33N 37°49' W 122°25'1 1.0
2014-Dec-18 21:34N 37°49' W 122°26'1 1.0
2014-Dec-18 20:33N 37°49' W 122°25'3 2.8
2014-Dec-18 19:34N 37°49' W 122°28'1 1.1
2014-Dec-18 18:34N 37°49' W 122°27'2 0.1
2014-Dec-18 00:07N 37°49' W 122°25'2 4.0
2014-Dec-17 23:33N 37°49' W 122°28'2 2.1
2014-Dec-17 22:33N 37°49' W 122°25'1 0.8
2014-Dec-17 21:33N 37°49' W 122°25'3 2.7
2014-Dec-17 20:33N 37°49' W 122°28'3 0.1
2014-Dec-17 00:03N 37°49' W 122°25'2 3.2
2014-Dec-16 23:33N 37°50' W 122°26'2 1.7
2014-Dec-16 22:33N 37°49' W 122°24'0 0.4
2014-Dec-16 21:33N 37°49' W 122°25'2 2.1
2014-Dec-16 20:33N 37°49' W 122°27'2 0.1
2014-Dec-16 03:32N 37°49' W 122°25'3 2.7
2014-Dec-16 02:33N 37°49' W 122°22'3 2.5
2014-Dec-16 01:30N 37°49' W 122°25'0 0.0
2014-Dec-16 00:31N 37°49' W 122°25'0 0.0
2014-Dec-15 23:33N 37°49' W 122°25'0 0.2
2014-Dec-15 22:33N 37°49' W 122°25'3 2.9
2014-Dec-15 21:33N 37°49' W 122°29'3 3.0
2014-Dec-15 20:33N 37°49' W 122°25'2 2.4
2014-Dec-15 19:33N 37°49' W 122°28'2 2.4
2014-Dec-15 18:33N 37°49' W 122°25'0 0.0
2014-Dec-15 05:16N 37°49' W 122°25'1 1.1
2014-Dec-15 04:33N 37°48' W 122°24'4 4.3
2014-Dec-15 03:33N 37°52' W 122°26'4 3.5
2014-Dec-15 02:33N 37°49' W 122°27'2 1.9
2014-Dec-15 01:33N 37°49' W 122°25'0 0.0
2014-Dec-15 00:33N 37°49' W 122°25'3 3.1
2014-Dec-14 23:33N 37°49' W 122°29'3 0.2
2014-Dec-14 06:07N 37°49' W 122°25'0 0.0
2014-Dec-14 05:33N 37°49' W 122°25'3 2.9
2014-Dec-14 04:33N 37°48' W 122°21'6 5.9
2014-Dec-14 03:33N 37°52' W 122°27'4 4.0
2014-Dec-14 02:33N 37°49' W 122°25'0 0.0
2014-Dec-14 01:33N 37°49' W 122°25'1 1.1
2014-Dec-14 00:33N 37°50' W 122°25'1 1.1
2014-Dec-13 23:33N 37°49' W 122°25'0 0.0
2014-Dec-13 22:33N 37°49' W 122°25'3 2.7
2014-Dec-13 21:33N 37°49' W 122°28'3 2.7
2014-Dec-13 20:33N 37°49' W 122°25'2 2.3
2014-Dec-13 19:33N 37°49' W 122°28'1 0.5
2014-Dec-13 18:33N 37°49' W 122°27'2 2.1
2014-Dec-13 17:33N 37°49' W 122°25'0 0.0
2014-Dec-13 03:33N 37°49' W 122°25'3 2.6
2014-Dec-13 02:34N 37°50' W 122°22'3 2.6
2014-Dec-13 01:34N 37°49' W 122°25'0 0.0
2014-Dec-13 00:33N 37°49' W 122°25'0 0.0
2014-Dec-12 23:33N 37°49' W 122°25'0 0.1
2014-Dec-12 22:33N 37°49' W 122°25'3 2.9
2014-Dec-12 21:34N 37°49' W 122°29'3 3.0
2014-Dec-12 20:34N 37°49' W 122°25'  

Dump ship's entire track history